Time;durP1;ratioP1;P1;durP2;ratioP2;P2;SDS_P1;SDS_P2;PMS_P1;PMS_P2;Temp;Humidity;BMP_temperature;BMP_pressure;BME280_temperature;BME280_humidity;BME280_pressure;Samples;Min_cycle;Max_cycle;Signal;HPM_P1;HPM_P2
2021/05/12 00:01:04;;;;;;;7.70;3.33;;;;;;;10.47;89.94;100509.59;5109794;27;20028;-72
2021/05/12 00:03:32;;;;;;;6.55;3.95;;;;;;;10.48;90.09;100505.00;5117408;28;20031;-73
2021/05/12 00:05:58;;;;;;;7.00;3.38;;;;;;;10.48;89.71;100505.81;5085298;28;20069;-73
2021/05/12 00:08:23;;;;;;;6.57;3.17;;;;;;;10.51;89.86;100509.88;5116276;28;20031;-72
2021/05/12 00:10:49;;;;;;;5.57;3.58;;;;;;;10.52;89.86;100508.78;5101419;28;20015;-73
2021/05/12 00:13:14;;;;;;;5.32;3.53;;;;;;;10.51;89.90;100499.78;5098972;28;20039;-72
2021/05/12 00:15:40;;;;;;;4.63;3.50;;;;;;;10.53;89.67;100505.78;5106627;28;20094;-72
2021/05/12 00:18:11;;;;;;;4.68;3.50;;;;;;;10.54;89.69;100493.78;5102633;28;20042;-72
2021/05/12 00:20:37;;;;;;;5.57;3.30;;;;;;;10.57;89.63;100492.41;5098293;28;20048;-72
2021/05/12 00:23:06;;;;;;;7.32;3.05;;;;;;;10.57;89.64;100485.03;5114042;28;20083;-72
2021/05/12 00:25:32;;;;;;;4.93;3.15;;;;;;;10.59;89.55;100501.13;5096373;28;20389;-72
2021/05/12 00:27:57;;;;;;;6.03;3.83;;;;;;;10.59;89.61;100496.47;5110754;28;20023;-72
2021/05/12 00:30:23;;;;;;;7.32;3.83;;;;;;;10.62;89.44;100486.91;5094406;28;20008;-71
2021/05/12 00:32:48;;;;;;;3.78;3.15;;;;;;;10.61;89.49;100496.19;5108962;28;20043;-72
2021/05/12 00:35:14;;;;;;;4.45;3.55;;;;;;;10.60;89.45;100476.28;5104740;28;20489;-72
2021/05/12 00:37:40;;;;;;;8.05;4.20;;;;;;;10.60;89.43;100481.75;5099053;28;20466;-71
2021/05/12 00:40:06;;;;;;;8.35;3.40;;;;;;;10.59;89.55;100469.22;5106101;28;20048;-72
2021/05/12 00:42:31;;;;;;;7.10;3.67;;;;;;;10.60;89.34;100465.38;5104512;28;20466;-72
2021/05/12 00:44:57;;;;;;;6.85;3.60;;;;;;;10.62;89.34;100467.84;5109911;28;20610;-72
2021/05/12 00:47:30;;;;;;;7.75;3.72;;;;;;;10.61;89.43;100466.19;5115343;28;20095;-72
2021/05/12 00:49:55;;;;;;;;;;;;;;;10.63;89.26;100451.19;5113107;28;20028;-72
2021/05/12 00:52:21;;;;;;;5.38;2.90;;;;;;;10.64;89.09;100460.19;5116512;28;19907;-72
2021/05/12 00:54:46;;;;;;;7.35;3.08;;;;;;;10.63;89.07;100464.81;5114424;28;20069;-72
2021/05/12 00:57:12;;;;;;;6.53;2.92;;;;;;;10.63;89.17;100464.81;5108299;28;20073;-72
2021/05/12 00:59:37;;;;;;;6.72;3.38;;;;;;;10.64;89.03;100471.91;5105868;28;20077;-73
2021/05/12 01:02:04;;;;;;;3.30;2.63;;;;;;;10.66;89.19;100469.69;5111461;28;20023;-73
2021/05/12 01:04:30;;;;;;;5.85;3.30;;;;;;;10.66;89.11;100464.25;5114862;28;20027;-72
2021/05/12 01:06:55;;;;;;;6.03;3.22;;;;;;;10.69;89.23;100453.88;5106438;28;20059;-72
2021/05/12 01:09:21;;;;;;;3.70;2.70;;;;;;;10.70;89.06;100447.34;5116296;28;20042;-72
2021/05/12 01:11:46;;;;;;;5.22;2.90;;;;;;;10.70;88.89;100437.25;5105377;28;20080;-72
2021/05/12 01:14:11;;;;;;;3.67;2.67;;;;;;;10.72;89.11;100440.53;5097260;28;20020;-72
2021/05/12 01:16:38;;;;;;;4.78;2.60;;;;;;;10.73;88.75;100435.88;5109575;28;20027;-73
2021/05/12 01:19:04;;;;;;;7.72;3.72;;;;;;;10.74;88.79;100426.59;5114695;28;20058;-73
2021/05/12 01:21:29;;;;;;;6.53;3.42;;;;;;;10.75;88.86;100425.47;5108379;28;20019;-72
2021/05/12 01:23:55;;;;;;;6.15;2.83;;;;;;;10.76;88.84;100403.41;5105560;28;20028;-73
2021/05/12 01:26:21;;;;;;;4.30;2.95;;;;;;;10.76;88.78;100386.22;5099114;28;20557;-73
2021/05/12 01:28:48;;;;;;;5.57;3.38;;;;;;;10.77;88.56;100387.84;5107699;28;20031;-73
2021/05/12 01:31:22;;;;;;;4.70;2.50;;;;;;;10.77;88.53;100369.56;5096419;28;20095;-72
2021/05/12 01:33:48;;;;;;;5.15;2.92;;;;;;;10.78;88.44;100370.41;5107043;28;20124;-72
2021/05/12 01:36:14;;;;;;;6.50;2.60;;;;;;;10.77;88.51;100363.31;5109493;28;20061;-73
2021/05/12 01:38:41;;;;;;;3.88;2.50;;;;;;;10.75;88.31;100357.31;5103086;28;20378;-73
2021/05/12 01:41:06;;;;;;;4.32;2.53;;;;;;;10.75;88.33;100357.31;5102682;28;20032;-73
2021/05/12 01:43:32;;;;;;;7.65;2.90;;;;;;;10.75;88.44;100349.13;5113096;28;20016;-73
2021/05/12 01:45:58;;;;;;;3.22;2.38;;;;;;;10.72;88.22;100345.09;5104709;28;20161;-72
2021/05/12 01:48:23;;;;;;;5.80;3.00;;;;;;;10.71;88.17;100346.19;5109875;28;20027;-73
2021/05/12 01:50:49;;;;;;;4.13;2.70;;;;;;;10.72;88.46;100341.53;5106790;27;20020;-72
2021/05/12 01:53:14;;;;;;;6.50;2.70;;;;;;;10.70;88.34;100339.09;5108639;28;20099;-73
2021/05/12 01:55:40;;;;;;;6.25;3.35;;;;;;;10.70;88.25;100341.03;5097396;28;20032;-73
2021/05/12 01:58:05;;;;;;;3.10;2.58;;;;;;;10.69;88.14;100339.38;5105367;28;20031;-73
2021/05/12 02:00:34;;;;;;;5.05;2.70;;;;;;;10.69;88.17;100333.94;5108913;28;20390;-73
2021/05/12 02:03:00;;;;;;;5.25;2.67;;;;;;;10.68;88.23;100343.22;5105122;28;20055;-73
2021/05/12 02:05:26;;;;;;;5.00;2.80;;;;;;;10.68;88.36;100344.03;5110491;28;20031;-73
2021/05/12 02:07:58;;;;;;;6.50;2.75;;;;;;;10.69;88.10;100353.00;5102614;28;20031;-73
2021/05/12 02:10:23;;;;;;;3.78;2.85;;;;;;;10.70;88.13;100357.38;5091267;28;20114;-73
2021/05/12 02:12:50;;;;;;;3.17;2.40;;;;;;;10.71;88.25;100362.53;5114875;28;20501;-73
2021/05/12 02:15:15;;;;;;;4.10;2.92;;;;;;;10.73;88.23;100373.16;5112011;28;20108;-72
2021/05/12 02:17:41;;;;;;;4.72;2.63;;;;;;;10.74;88.13;100374.78;5112429;28;20435;-73
2021/05/12 02:20:07;;;;;;;4.40;2.60;;;;;;;10.76;88.02;100380.78;5113786;28;20026;-71
2021/05/12 02:22:33;;;;;;;5.30;3.17;;;;;;;10.77;88.11;100387.84;5111044;28;20042;-73
2021/05/12 02:24:58;;;;;;;3.40;2.40;;;;;;;10.78;88.13;100384.03;5100232;28;20390;-73
2021/05/12 02:27:23;;;;;;;3.67;2.75;;;;;;;10.80;88.15;100387.28;5105782;28;20023;-73
2021/05/12 02:29:49;;;;;;;6.20;2.78;;;;;;;10.80;88.09;100373.63;5100402;28;20023;-73
2021/05/12 02:32:14;;;;;;;3.65;2.83;;;;;;;10.81;88.03;100361.66;5097895;28;20028;-73
2021/05/12 02:34:40;;;;;;;4.28;2.67;;;;;;;10.80;87.86;100351.81;5114150;28;20040;-72
2021/05/12 02:37:05;;;;;;;4.70;2.97;;;;;;;10.77;87.89;100350.47;5101473;28;20482;-73
2021/05/12 02:39:30;;;;;;;4.03;2.83;;;;;;;10.78;87.84;100354.03;5106752;28;20030;-72
2021/05/12 02:41:56;;;;;;;3.28;2.90;;;;;;;10.78;87.59;100351.31;5103198;28;20019;-72
2021/05/12 02:44:21;;;;;;;4.75;2.80;;;;;;;10.78;87.89;100345.88;5114354;28;20030;-72
2021/05/12 02:46:47;;;;;;;3.40;3.10;;;;;;;10.77;87.91;100352.41;5071459;28;20043;-71
2021/05/12 02:49:12;;;;;;;5.18;2.90;;;;;;;10.79;87.92;100358.38;5114080;28;20058;-73
2021/05/12 02:51:38;;;;;;;5.15;2.90;;;;;;;10.80;87.74;100370.91;5101365;28;20036;-72
2021/05/12 02:54:03;;;;;;;3.85;3.15;;;;;;;10.83;87.87;100378.53;5114147;27;20034;-72
2021/05/12 02:56:29;;;;;;;4.68;3.65;;;;;;;10.85;87.94;100403.59;5103971;28;20024;-73
2021/05/12 02:58:54;;;;;;;7.28;3.47;;;;;;;10.86;87.89;100448.88;5110684;28;20516;-73
2021/05/12 03:01:20;;;;;;;7.32;3.15;;;;;;;10.84;87.31;100497.44;5096817;28;20029;-73
2021/05/12 03:03:45;;;;;;;11.45;4.07;;;;;;;10.81;87.76;100470.72;5090526;28;20050;-74
2021/05/12 03:06:10;;;;;;;6.75;3.72;;;;;;;10.81;87.95;100413.47;5106816;28;20028;-73
2021/05/12 03:08:36;;;;;;;5.57;3.65;;;;;;;10.82;87.78;100379.63;5091969;28;20448;-73
2021/05/12 03:11:01;;;;;;;6.72;3.85;;;;;;;10.85;88.18;100357.22;5079460;28;20024;-73
2021/05/12 03:13:27;;;;;;;4.75;3.40;;;;;;;10.83;87.93;100354.81;5105734;28;20099;-73
2021/05/12 03:15:53;;;;;;;7.95;3.72;;;;;;;10.84;87.90;100361.06;5109199;28;20023;-73
2021/05/12 03:18:20;;;;;;;10.43;3.85;;;;;;;10.84;87.87;100361.06;5085263;28;20036;-73
2021/05/12 03:20:45;;;;;;;7.35;4.22;;;;;;;10.81;87.86;100348.81;5094495;28;20038;-73
2021/05/12 03:23:10;;;;;;;6.43;3.70;;;;;;;10.82;88.11;100352.34;5097406;28;20027;-73
2021/05/12 03:25:36;;;;;;;10.95;4.85;;;;;;;10.83;87.88;100354.81;5102364;28;20019;-73
2021/05/12 03:28:01;;;;;;;12.82;4.60;;;;;;;10.85;88.02;100336.22;5103737;28;20498;-73
2021/05/12 03:30:29;;;;;;;11.32;4.60;;;;;;;10.84;87.76;100296.44;5101573;28;20012;-74
2021/05/12 03:32:56;;;;;;;6.00;4.53;;;;;;;10.82;87.82;100287.72;5102911;28;20118;-73
2021/05/12 03:35:22;;;;;;;6.63;4.38;;;;;;;10.81;87.89;100291.56;5110810;28;20020;-72
2021/05/12 03:37:47;;;;;;;9.40;4.45;;;;;;;10.79;88.14;100254.78;5099199;28;20035;-72
2021/05/12 03:40:13;;;;;;;7.82;4.55;;;;;;;10.75;87.95;100238.19;5110431;28;20382;-72
2021/05/12 03:42:38;;;;;;;7.10;4.28;;;;;;;10.71;87.64;100219.97;5082260;28;20483;-72
2021/05/12 03:45:05;;;;;;;8.98;4.68;;;;;;;10.69;88.00;100233.06;5111113;28;20023;-72
2021/05/12 03:47:30;;;;;;;7.07;3.88;;;;;;;10.65;87.82;100222.72;5082659;28;20035;-73
2021/05/12 03:49:55;;;;;;;5.22;3.90;;;;;;;10.63;88.12;100218.66;5112413;28;20019;-72
2021/05/12 03:52:21;;;;;;;11.07;4.22;;;;;;;10.62;87.92;100209.69;5098503;28;20477;-72
2021/05/12 03:54:49;;;;;;;9.23;5.35;;;;;;;10.62;88.14;100212.41;5113403;28;20046;-73
2021/05/12 03:57:15;;;;;;;9.82;5.03;;;;;;;10.61;88.08;100205.34;5078396;28;20489;-72
2021/05/12 03:59:40;;;;;;;5.95;4.18;;;;;;;10.64;88.08;100204.75;5093922;28;20028;-72
2021/05/12 04:02:06;;;;;;;7.35;4.63;;;;;;;10.64;88.19;100196.59;5100972;28;20043;-72
2021/05/12 04:04:31;;;;;;;8.02;4.55;;;;;;;10.65;88.16;100187.28;5101734;28;20027;-72
2021/05/12 04:06:56;;;;;;;9.55;5.07;;;;;;;10.66;88.16;100179.94;5099254;28;20470;-72
2021/05/12 04:09:22;;;;;;;7.55;4.35;;;;;;;10.66;88.32;100160.84;5099276;28;20020;-72
2021/05/12 04:11:48;;;;;;;7.15;4.47;;;;;;;10.69;88.30;100167.63;5095148;28;20028;-72
2021/05/12 04:14:13;;;;;;;7.88;4.82;;;;;;;10.69;88.31;100148.53;5108310;28;20454;-72
2021/05/12 04:16:39;;;;;;;7.05;4.85;;;;;;;10.69;88.43;100146.63;5099396;28;20040;-72
2021/05/12 04:19:04;;;;;;;5.85;4.63;;;;;;;10.72;88.40;100178.78;5086917;28;20028;-71
2021/05/12 04:21:30;;;;;;;7.75;4.95;;;;;;;10.75;88.58;100250.97;5094856;28;20142;-72
2021/05/12 04:23:56;;;;;;;6.45;4.50;;;;;;;10.77;88.26;100347.75;5096738;28;20047;-71
2021/05/12 04:26:21;;;;;;;9.70;4.45;;;;;;;10.76;88.29;100375.31;5096158;28;20056;-72
2021/05/12 04:28:47;;;;;;;6.30;4.72;;;;;;;10.74;88.39;100361.16;5099762;28;20458;-72
2021/05/12 04:31:12;;;;;;;6.93;4.90;;;;;;;10.75;88.30;100335.50;5109233;28;20023;-71
2021/05/12 04:33:37;;;;;;;6.68;4.75;;;;;;;10.77;88.31;100317.75;5114775;28;20232;-71
2021/05/12 04:36:03;;;;;;;7.57;4.75;;;;;;;10.82;88.56;100330.53;5102863;28;20389;-72
2021/05/12 04:38:29;;;;;;;7.07;4.80;;;;;;;10.88;88.54;100357.50;5107640;28;20386;-72
2021/05/12 04:40:56;;;;;;;8.95;5.10;;;;;;;10.95;88.52;100340.78;5116634;28;20024;-72
2021/05/12 04:43:21;;;;;;;9.30;4.80;;;;;;;11.01;88.16;100317.81;5112226;28;20494;-72
2021/05/12 04:45:47;;;;;;;7.10;4.25;;;;;;;11.06;88.08;100325.13;5108111;28;20032;-72
2021/05/12 04:48:12;;;;;;;9.10;5.25;;;;;;;11.06;88.15;100336.06;5106007;28;20027;-72
2021/05/12 04:50:37;;;;;;;5.28;4.50;;;;;;;11.07;88.13;100340.41;5116789;27;20023;-72
2021/05/12 04:53:03;;;;;;;8.95;5.45;;;;;;;11.08;88.24;100320.22;5110335;28;20035;-72
2021/05/12 04:55:28;;;;;;;6.32;4.85;;;;;;;11.08;88.09;100307.38;5112264;28;20061;-72
2021/05/12 04:57:54;;;;;;;5.32;4.82;;;;;;;11.04;87.91;100306.31;5095309;28;20028;-72
2021/05/12 05:00:20;;;;;;;7.80;4.70;;;;;;;11.04;88.03;100305.50;5112147;28;20031;-72
2021/05/12 05:02:45;;;;;;;8.73;5.30;;;;;;;11.02;88.10;100314.00;5109154;27;20027;-72
2021/05/12 05:05:16;;;;;;;5.25;4.20;;;;;;;10.99;88.06;100303.63;5116374;28;20026;-72
2021/05/12 05:07:43;;;;;;;6.07;4.20;;;;;;;10.96;88.17;100304.22;5086104;28;20032;-73
2021/05/12 05:10:08;;;;;;;7.00;4.30;;;;;;;10.92;87.98;100305.91;5108661;28;20027;-72
2021/05/12 05:12:34;;;;;;;7.72;3.83;;;;;;;10.90;88.06;100310.84;5107059;28;20051;-73
2021/05/12 05:14:59;;;;;;;7.28;4.13;;;;;;;10.88;88.13;100299.41;5104103;28;20051;-73
2021/05/12 05:17:25;;;;;;;6.45;4.25;;;;;;;10.89;88.05;100303.75;5097158;28;20038;-72
2021/05/12 05:19:52;;;;;;;4.55;4.15;;;;;;;10.88;88.19;100293.94;5116021;28;20027;-73
2021/05/12 05:22:18;;;;;;;7.70;5.07;;;;;;;10.87;88.14;100295.06;5079851;28;20103;-72
2021/05/12 05:24:43;;;;;;;8.48;5.60;;;;;;;10.85;88.13;100295.31;5101609;28;20389;-72
2021/05/12 05:27:09;;;;;;;5.55;4.30;;;;;;;10.85;88.08;100297.25;5097912;28;20024;-72
2021/05/12 05:29:34;;;;;;;7.07;4.35;;;;;;;10.81;88.13;100288.03;5105091;28;20026;-72
2021/05/12 05:32:00;;;;;;;8.75;4.60;;;;;;;10.76;88.20;100288.88;5103568;28;20036;-72
2021/05/12 05:34:25;;;;;;;6.85;4.18;;;;;;;10.74;88.39;100290.25;5097705;28;20141;-72
2021/05/12 05:36:50;;;;;;;6.68;4.30;;;;;;;10.71;88.17;100279.94;5093303;28;20023;-72
2021/05/12 05:39:16;;;;;;;5.82;4.80;;;;;;;10.66;88.59;100245.34;5104782;28;20040;-72
2021/05/12 05:41:41;;;;;;;4.63;3.97;;;;;;;10.61;88.51;100226.31;5109183;28;20024;-72
2021/05/12 05:44:07;;;;;;;6.28;4.88;;;;;;;10.57;88.71;100226.09;5102201;28;20016;-73
2021/05/12 05:46:32;;;;;;;9.40;4.90;;;;;;;10.55;88.59;100255.53;5111585;28;20346;-72
2021/05/12 05:48:57;;;;;;;9.93;5.05;;;;;;;10.54;88.61;100221.22;5115478;28;20034;-72
2021/05/12 05:51:23;;;;;;;7.22;4.43;;;;;;;10.53;88.71;100180.59;5113655;27;20027;-73
2021/05/12 05:53:49;;;;;;;4.95;4.35;;;;;;;10.49;88.87;100144.94;5112998;28;20019;-73
2021/05/12 05:56:15;;;;;;;6.18;4.60;;;;;;;10.46;89.00;100123.72;5115200;28;20512;-73
2021/05/12 05:58:40;;;;;;;6.47;3.97;;;;;;;10.42;89.14;100136.28;5096450;28;20031;-72
2021/05/12 06:01:05;;;;;;;6.38;4.45;;;;;;;10.39;89.35;100136.88;5113789;28;20039;-72
2021/05/12 06:03:31;;;;;;;8.70;4.75;;;;;;;10.38;89.47;100143.44;5102773;28;20015;-73
2021/05/12 06:05:56;;;;;;;7.25;4.10;;;;;;;10.37;89.39;100112.66;5101383;28;20077;-72
2021/05/12 06:08:24;;;;;;;6.90;4.18;;;;;;;10.36;89.45;100031.19;5109659;28;20523;-73
2021/05/12 06:10:50;;;;;;;5.50;3.97;;;;;;;10.32;89.59;100022.00;5114543;28;20030;-73
2021/05/12 06:13:16;;;;;;;6.38;4.50;;;;;;;10.30;89.67;100041.34;5108154;28;20031;-73
2021/05/12 06:15:41;;;;;;;6.90;5.82;;;;;;;10.33;89.67;100067.19;5113393;28;20035;-72
2021/05/12 06:18:07;;;;;;;6.65;4.78;;;;;;;10.38;89.74;100091.66;5107244;28;20020;-72
2021/05/12 06:20:33;;;;;;;9.57;5.88;;;;;;;10.43;89.78;100083.44;5113218;28;20098;-72
2021/05/12 06:23:05;;;;;;;6.55;5.15;;;;;;;10.50;89.87;100089.34;5104823;27;20046;-72
2021/05/12 06:25:30;;;;;;;9.88;5.38;;;;;;;10.61;89.75;100096.31;5102411;28;20019;-73
2021/05/12 06:27:56;;;;;;;7.18;5.80;;;;;;;10.74;89.79;100083.88;5091586;28;20411;-73
2021/05/12 06:30:21;;;;;;;8.85;6.15;;;;;;;10.86;89.48;100113.47;5113768;28;20373;-73
2021/05/12 06:32:47;;;;;;;6.38;5.53;;;;;;;10.96;89.55;100113.31;5102874;28;20055;-72
2021/05/12 06:35:13;;;;;;;12.43;6.45;;;;;;;11.08;89.44;100110.97;5095764;28;20024;-73
2021/05/12 06:37:38;;;;;;;8.30;6.00;;;;;;;11.22;89.46;100137.53;5103687;28;20082;-72
2021/05/12 06:40:04;;;;;;;7.80;5.93;;;;;;;11.31;89.00;100152.94;5092983;28;20012;-72
2021/05/12 06:42:30;;;;;;;7.78;6.07;;;;;;;11.42;88.97;100155.53;5105235;28;20031;-73
2021/05/12 06:44:55;;;;;;;8.15;6.25;;;;;;;11.51;88.83;100145.56;5109214;28;20023;-73
2021/05/12 06:47:21;;;;;;;11.02;5.50;;;;;;;11.60;88.74;100141.06;5101152;28;20031;-73
2021/05/12 06:49:47;;;;;;;7.53;5.63;;;;;;;11.69;88.73;100139.28;5100203;28;20011;-73
2021/05/12 06:52:12;;;;;;;8.70;5.63;;;;;;;11.74;88.54;100138.41;5104876;28;20021;-73
2021/05/12 06:54:38;;;;;;;10.75;6.43;;;;;;;11.76;88.31;100153.38;5095815;28;20393;-74
2021/05/12 06:57:03;;;;;;;9.18;6.00;;;;;;;11.82;88.26;100167.75;5106128;28;20028;-72
2021/05/12 06:59:29;;;;;;;6.93;6.20;;;;;;;11.93;88.31;100185.63;5091458;28;20039;-73
2021/05/12 07:01:54;;;;;;;9.73;5.90;;;;;;;12.04;88.15;100185.47;5101012;28;20034;-73
2021/05/12 07:04:19;;;;;;;8.98;6.55;;;;;;;12.10;87.87;100176.91;5095344;28;20028;-71
2021/05/12 07:06:45;;;;;;;7.22;5.65;;;;;;;12.27;87.95;100179.06;5106181;28;20037;-72
2021/05/12 07:09:10;;;;;;;6.68;5.40;;;;;;;12.48;87.76;100192.38;5113387;27;20020;-72
2021/05/12 07:11:36;;;;;;;8.00;6.20;;;;;;;12.61;87.41;100183.38;5112562;28;20198;-72
2021/05/12 07:14:03;;;;;;;7.05;5.75;;;;;;;12.66;87.32;100173.16;5110328;28;20023;-72
2021/05/12 07:16:28;;;;;;;6.35;5.75;;;;;;;12.68;87.00;100185.72;5112793;28;20015;-72
2021/05/12 07:18:54;;;;;;;8.30;6.32;;;;;;;12.73;87.15;100180.97;5107004;28;20081;-72
2021/05/12 07:21:19;;;;;;;9.05;6.63;;;;;;;12.75;86.91;100169.72;5113490;28;20015;-71
2021/05/12 07:23:44;;;;;;;10.48;6.07;;;;;;;12.76;87.10;100180.34;5100150;28;20020;-72
2021/05/12 07:26:13;;;;;;;6.82;5.90;;;;;;;12.80;86.56;100194.25;5105431;28;20033;-72
2021/05/12 07:28:38;;;;;;;10.68;5.95;;;;;;;12.78;86.48;100178.13;5095702;28;20468;-72
2021/05/12 07:31:04;;;;;;;9.02;6.38;;;;;;;12.76;86.32;100187.75;5105649;28;20047;-72
2021/05/12 07:33:30;;;;;;;10.57;6.22;;;;;;;12.78;86.37;100188.25;5078133;28;20071;-72
2021/05/12 07:35:55;;;;;;;9.13;6.85;;;;;;;12.80;86.32;100192.31;5112083;28;20463;-72
2021/05/12 07:38:21;;;;;;;11.65;6.90;;;;;;;12.82;86.23;100192.00;5080118;28;20546;-72
2021/05/12 07:40:46;;;;;;;12.45;6.13;;;;;;;12.85;86.08;100194.97;5113752;28;20023;-72
2021/05/12 07:43:12;;;;;;;12.43;7.10;;;;;;;12.89;85.96;100190.50;5092369;28;20032;-73
2021/05/12 07:45:41;;;;;;;13.90;6.28;;;;;;;12.93;85.86;100187.13;5103995;28;20470;-72
2021/05/12 07:48:11;;;;;;;13.38;5.57;;;;;;;12.97;85.60;100199.91;5098186;28;20052;-73
2021/05/12 07:50:37;;;;;;;8.32;6.20;;;;;;;13.07;85.67;100204.38;5107078;28;20065;-72
2021/05/12 07:53:03;;;;;;;10.35;6.88;;;;;;;13.16;85.63;100201.75;5095418;28;20020;-72
2021/05/12 07:55:29;;;;;;;7.85;5.80;;;;;;;13.20;85.14;100206.28;5111225;28;20026;-72
2021/05/12 07:57:55;;;;;;;8.32;5.95;;;;;;;13.22;85.08;100206.78;5105011;28;20099;-72
2021/05/12 08:00:21;;;;;;;8.40;6.47;;;;;;;13.30;84.80;100214.31;5094413;28;20031;-73
2021/05/12 08:02:46;;;;;;;8.75;5.95;;;;;;;13.32;84.76;100214.81;5100875;28;20103;-72
2021/05/12 08:05:12;;;;;;;6.63;6.00;;;;;;;13.38;84.53;100222.94;5099709;28;20156;-72
2021/05/12 08:07:38;;;;;;;8.45;6.32;;;;;;;13.42;84.48;100212.97;5081511;28;20119;-72
2021/05/12 08:10:04;;;;;;;6.68;5.55;;;;;;;13.46;84.29;100222.22;5098754;28;20059;-71
2021/05/12 08:12:29;;;;;;;13.15;6.47;;;;;;;13.50;83.91;100225.94;5109624;28;20066;-72
2021/05/12 08:14:55;;;;;;;8.45;6.15;;;;;;;13.56;83.99;100224.75;5105781;28;20024;-72
2021/05/12 08:17:20;;;;;;;7.85;6.05;;;;;;;13.65;83.83;100227.56;5111714;28;20398;-72
2021/05/12 08:19:46;;;;;;;11.00;6.55;;;;;;;13.73;83.88;100224.88;5066429;28;20055;-72
2021/05/12 08:22:11;;;;;;;6.97;5.78;;;;;;;13.85;83.46;100221.59;5110061;28;20019;-72
2021/05/12 08:24:37;;;;;;;7.47;5.47;;;;;;;13.99;83.35;100222.38;5097137;28;20382;-72
2021/05/12 08:27:03;;;;;;;7.97;6.07;;;;;;;14.05;82.96;100223.06;5117395;28;20034;-73
2021/05/12 08:29:30;;;;;;;8.40;6.47;;;;;;;14.11;82.86;100224.56;5070995;28;20100;-73
2021/05/12 08:31:56;;;;;;;8.23;6.15;;;;;;;14.22;82.52;100230.59;5101486;28;20335;-73
2021/05/12 08:34:22;;;;;;;10.60;6.55;;;;;;;14.28;82.18;100223.06;5074330;28;20047;-72
2021/05/12 08:36:47;;;;;;;8.15;6.05;;;;;;;14.31;81.96;100225.97;5114780;28;20085;-73
2021/05/12 08:39:13;;;;;;;8.95;5.97;;;;;;;14.37;81.92;100227.47;5109018;28;20023;-72
2021/05/12 08:41:40;;;;;;;7.57;6.28;;;;;;;14.46;81.66;100229.44;5115602;28;20038;-72
2021/05/12 08:44:06;;;;;;;7.95;6.78;;;;;;;14.54;81.50;100224.06;5107221;28;20028;-73
2021/05/12 08:46:31;;;;;;;7.35;6.18;;;;;;;14.61;81.09;100218.94;5102112;28;20123;-73
2021/05/12 08:48:57;;;;;;;7.80;6.15;;;;;;;14.67;81.09;100218.78;5099851;28;20028;-73
2021/05/12 08:51:25;;;;;;;9.35;6.30;;;;;;;14.71;80.78;100208.81;5102466;28;20028;-73
2021/05/12 08:53:51;;;;;;;7.03;6.28;;;;;;;14.75;80.55;100212.53;5104100;28;20024;-72
2021/05/12 08:56:16;;;;;;;8.32;6.70;;;;;;;14.85;80.61;100220.50;5098198;28;20028;-73
2021/05/12 08:58:42;;;;;;;6.55;5.93;;;;;;;14.93;80.35;100225.22;5100452;27;20027;-72
2021/05/12 09:01:07;;;;;;;7.60;5.65;;;;;;;15.02;79.99;100226.06;5106501;28;20028;-73
2021/05/12 09:03:33;;;;;;;9.48;5.72;;;;;;;15.14;80.11;100227.38;5089853;28;20031;-72
2021/05/12 09:05:59;;;;;;;6.70;5.88;;;;;;;15.29;79.63;100235.19;5091686;28;20027;-72
2021/05/12 09:08:26;;;;;;;8.43;6.03;;;;;;;15.45;79.37;100227.31;5076981;28;20020;-72
2021/05/12 09:10:53;;;;;;;10.70;7.07;;;;;;;15.64;78.96;100236.06;5081442;28;20035;-71
2021/05/12 09:13:49;;;;;;;7.95;6.65;;;;;;;15.86;78.12;100237.09;5107587;28;20478;-72
2021/05/12 09:16:30;;;;;;;7.07;6.35;;;;;;;16.05;77.98;100236.78;5083890;28;20066;-71
2021/05/12 09:18:59;;;;;;;7.03;6.03;;;;;;;16.17;77.51;100232.22;5074178;28;20063;-72
2021/05/12 09:21:33;;;;;;;7.07;6.03;;;;;;;16.14;76.91;100237.56;5101627;28;20024;-72
2021/05/12 09:24:00;;;;;;;7.57;5.93;;;;;;;16.22;76.92;100228.50;5084082;28;20056;-72
2021/05/12 09:26:25;;;;;;;8.98;5.90;;;;;;;16.33;76.55;100226.22;5112357;28;20032;-72
2021/05/12 09:28:52;;;;;;;9.20;6.53;;;;;;;16.39;76.27;100231.22;5092490;28;20363;-72
2021/05/12 09:31:18;;;;;;;8.93;6.47;;;;;;;16.35;75.41;100230.28;5096926;28;20092;-72
2021/05/12 09:33:45;;;;;;;15.27;7.95;;;;;;;16.40;75.17;100234.81;5104448;28;20058;-71
2021/05/12 09:36:25;;;;;;;7.78;6.25;;;;;;;16.38;74.74;100235.13;5090788;28;20027;-72
2021/05/12 09:38:52;;;;;;;9.13;6.63;;;;;;;16.25;74.74;100233.34;5091554;28;20088;-72
2021/05/12 09:41:17;;;;;;;8.20;6.07;;;;;;;16.26;74.71;100240.50;5114112;28;20470;-72
2021/05/12 09:43:51;;;;;;;9.05;6.45;;;;;;;16.32;74.62;100244.69;5109574;27;20039;-72
2021/05/12 09:46:26;;;;;;;8.35;6.30;;;;;;;16.38;74.13;100248.88;5115216;28;20027;-72
2021/05/12 09:48:58;;;;;;;7.57;6.25;;;;;;;16.36;73.92;100250.34;5109160;28;20080;-72
2021/05/12 09:51:23;;;;;;;10.93;6.97;;;;;;;16.40;73.83;100243.84;5101753;27;20085;-72
2021/05/12 09:54:10;;;;;;;9.13;6.45;;;;;;;16.42;73.33;100249.03;5105485;28;20031;-72
2021/05/12 09:56:57;;;;;;;8.77;6.45;;;;;;;16.52;73.26;100251.44;5114242;28;20015;-72
2021/05/12 09:59:24;;;;;;;7.38;6.47;;;;;;;16.53;72.76;100261.31;5078520;28;20056;-72
2021/05/12 10:01:50;;;;;;;7.25;6.55;;;;;;;16.49;72.65;100262.31;5108940;28;20442;-72
2021/05/12 10:04:39;;;;;;;8.88;6.40;;;;;;;16.48;72.17;100268.91;5107151;28;20028;-73
2021/05/12 10:07:25;;;;;;;7.88;6.43;;;;;;;16.46;71.87;100266.50;5111904;28;20019;-72
2021/05/12 10:09:54;;;;;;;7.30;6.57;;;;;;;16.43;71.93;100275.41;5102199;28;20034;-72
2021/05/12 10:12:24;;;;;;;12.38;6.57;;;;;;;16.38;71.39;100275.59;5114429;28;20382;-72
2021/05/12 10:14:57;;;;;;;7.18;6.47;;;;;;;16.32;71.49;100280.44;5105992;28;20114;-72
2021/05/12 10:17:23;;;;;;;9.23;6.78;;;;;;;16.33;71.33;100279.28;5113307;28;20498;-72
2021/05/12 10:19:48;;;;;;;9.18;7.47;;;;;;;16.34;71.47;100286.44;5104020;28;20027;-72
2021/05/12 10:22:14;;;;;;;8.60;6.50;;;;;;;16.45;71.58;100283.31;5112879;28;20015;-72
2021/05/12 10:24:41;;;;;;;9.48;7.22;;;;;;;16.49;71.31;100278.81;5097385;28;20129;-72
2021/05/12 10:27:14;;;;;;;8.50;6.50;;;;;;;16.47;70.96;100289.31;5094177;27;20024;-72
2021/05/12 10:30:02;;;;;;;8.07;6.72;;;;;;;16.45;70.76;100294.34;5099017;28;20024;-72
2021/05/12 10:32:36;;;;;;;8.93;7.07;;;;;;;16.26;70.82;100294.66;5113154;28;20439;-72
2021/05/12 10:35:06;;;;;;;8.38;7.43;;;;;;;16.30;71.22;100296.44;5067149;28;20501;-72
2021/05/12 10:37:32;;;;;;;10.02;7.85;;;;;;;16.54;71.03;100308.91;5114100;28;20030;-72
2021/05/12 10:40:06;;;;;;;8.30;6.75;;;;;;;16.62;70.90;100314.41;5096322;28;20062;-72
2021/05/12 10:45:49;;;;;;;8.23;6.63;;;;;;;16.48;70.84;100323.94;5093908;28;20031;-71
2021/05/12 10:48:31;;;;;;;10.57;7.47;;;;;;;16.41;70.77;100330.75;5105061;28;20409;-71
2021/05/12 10:50:57;;;;;;;8.80;7.43;;;;;;;16.38;70.44;100323.16;5112949;28;20490;-72
2021/05/12 10:53:26;;;;;;;8.20;7.32;;;;;;;16.32;70.51;100332.72;5104944;28;20032;-71
2021/05/12 10:55:57;;;;;;;10.25;6.50;;;;;;;16.30;70.30;100328.66;5088014;28;20030;-72
2021/05/12 10:58:32;;;;;;;8.40;6.73;;;;;;;16.42;70.71;100334.31;5109338;28;20031;-71
2021/05/12 11:01:02;;;;;;;7.65;6.10;;;;;;;16.60;70.31;100326.88;5080282;28;20084;-72
2021/05/12 11:03:54;;;;;;;8.05;6.50;;;;;;;16.78;69.92;100328.50;5098858;28;20020;-73
2021/05/12 11:06:20;;;;;;;8.47;6.33;;;;;;;16.77;69.66;100326.84;5068308;28;20042;-72
2021/05/12 11:09:11;;;;;;;7.68;6.45;;;;;;;16.73;69.26;100325.88;5106675;28;20059;-72
2021/05/12 11:11:45;;;;;;;8.90;6.35;;;;;;;16.64;68.97;100331.41;5113719;28;20027;-72
2021/05/12 11:14:29;;;;;;;7.20;5.45;;;;;;;16.57;69.47;100322.00;5106928;28;20030;-72
2021/05/12 11:17:11;;;;;;;7.85;5.78;;;;;;;16.63;69.04;100326.22;5113584;28;20027;-72
2021/05/12 11:19:39;;;;;;;7.32;6.43;;;;;;;16.71;69.03;100330.09;5099431;28;20032;-72
2021/05/12 11:33:22;;;;;;;7.45;6.22;;;;;;;16.96;67.42;100344.97;5061029;28;20054;-72
2021/05/12 11:35:50;;;;;;;6.07;5.47;;;;;;;17.13;67.69;100342.16;5092905;28;20031;-72
2021/05/12 11:38:16;;;;;;;6.10;5.50;;;;;;;17.24;67.42;100345.38;5094336;28;20020;-73